createdAt,value
2023-10-30T00:12:25.554Z,12.11
2023-10-30T00:14:52.878Z,12.07
2023-10-30T00:18:35.530Z,12.08
2023-10-30T00:21:02.152Z,12.08
2023-10-30T00:23:29.958Z,11.98
2023-10-30T00:26:23.715Z,11.95
2023-10-30T00:28:52.994Z,11.97
2023-10-30T00:31:19.933Z,11.92
2023-10-30T00:33:46.895Z,11.91
2023-10-30T00:36:19.899Z,11.89
2023-10-30T00:38:47.260Z,11.85
2023-10-30T00:41:44.560Z,11.82
2023-10-30T00:44:11.398Z,11.80
2023-10-30T00:46:38.033Z,11.77
2023-10-30T00:49:05.567Z,11.73
2023-10-30T00:51:32.222Z,11.64
2023-10-30T00:53:58.822Z,11.61
2023-10-30T00:56:25.743Z,11.57
2023-10-30T00:58:52.379Z,11.52
2023-10-30T01:01:19.045Z,11.42
2023-10-30T01:03:46.778Z,11.39
2023-10-30T01:06:19.568Z,11.42
2023-10-30T01:08:47.070Z,11.38
2023-10-30T01:11:13.647Z,11.41
2023-10-30T01:13:40.279Z,11.36
2023-10-30T01:16:07.720Z,11.36
2023-10-30T01:18:35.279Z,11.36
2023-10-30T01:21:01.912Z,11.36
2023-10-30T01:23:29.219Z,11.35
2023-10-30T01:25:58.844Z,11.36
2023-10-30T01:28:25.955Z,11.37
2023-10-30T01:30:52.520Z,11.36
2023-10-30T01:33:20.748Z,11.37
2023-10-30T01:35:47.868Z,11.41
2023-10-30T01:38:14.892Z,11.44
2023-10-30T01:40:52.582Z,11.43
2023-10-30T01:43:32.924Z,11.43
2023-10-30T01:45:59.975Z,11.42
2023-10-30T01:48:32.558Z,11.45
2023-10-30T01:51:01.679Z,11.45
2023-10-30T01:53:30.355Z,11.43
2023-10-30T01:56:04.123Z,11.47
2023-10-30T01:58:32.182Z,11.43
2023-10-30T02:01:00.276Z,11.42
2023-10-30T02:03:28.106Z,11.42
2023-10-30T02:05:55.398Z,11.44
2023-10-30T02:08:23.047Z,11.45
2023-10-30T02:10:49.810Z,11.48
2023-10-30T02:13:17.902Z,11.49
2023-10-30T02:15:45.489Z,11.49
2023-10-30T02:18:12.537Z,11.53
2023-10-30T02:20:39.907Z,11.58
2023-10-30T02:23:06.496Z,11.59
2023-10-30T02:25:33.980Z,11.56
2023-10-30T02:28:00.892Z,11.59
2023-10-30T02:30:29.506Z,11.59
2023-10-30T02:32:56.540Z,11.55
2023-10-30T02:35:23.895Z,11.55
2023-10-30T02:37:51.530Z,11.58
2023-10-30T02:40:18.714Z,11.59
2023-10-30T02:42:46.031Z,11.61
2023-10-30T02:45:12.724Z,11.55
2023-10-30T02:47:39.582Z,11.55
2023-10-30T02:50:06.702Z,11.55
2023-10-30T02:52:33.920Z,11.54
2023-10-30T02:55:00.503Z,11.50
2023-10-30T02:57:27.779Z,11.49
2023-10-30T02:59:55.651Z,11.47
2023-10-30T03:02:23.159Z,11.51
2023-10-30T03:04:50.103Z,11.48
2023-10-30T03:07:17.614Z,11.47
2023-10-30T03:09:44.372Z,11.43
2023-10-30T03:12:12.215Z,11.41
2023-10-30T03:14:38.903Z,11.39
2023-10-30T03:17:06.912Z,11.44
2023-10-30T03:19:34.238Z,11.45
2023-10-30T03:22:01.151Z,11.46
2023-10-30T03:24:27.948Z,11.48
2023-10-30T03:26:55.307Z,11.51
2023-10-30T03:29:21.939Z,11.48
2023-10-30T03:31:49.978Z,11.48
2023-10-30T03:34:19.668Z,11.49
2023-10-30T03:36:46.676Z,11.48
2023-10-30T03:39:13.399Z,11.46
2023-10-30T03:41:45.659Z,11.44
2023-10-30T03:44:12.716Z,11.39
2023-10-30T03:46:40.880Z,11.35
2023-10-30T03:49:10.986Z,11.32
2023-10-30T03:51:37.632Z,11.33
2023-10-30T03:54:04.310Z,11.32
2023-10-30T03:56:30.887Z,11.30
2023-10-30T03:59:27.570Z,11.30
2023-10-30T04:01:54.297Z,11.27
2023-10-30T04:04:21.434Z,11.25
2023-10-30T04:06:48.163Z,11.29
2023-10-30T04:09:14.830Z,11.31
2023-10-30T04:11:41.524Z,11.30
2023-10-30T04:14:08.130Z,11.29
2023-10-30T04:16:41.426Z,11.28
2023-10-30T04:19:09.567Z,11.31
2023-10-30T04:21:36.396Z,11.29
2023-10-30T04:24:03.324Z,11.25
2023-10-30T04:26:31.923Z,11.22
2023-10-30T04:28:58.483Z,11.20
2023-10-30T04:31:25.285Z,11.20
2023-10-30T04:33:52.204Z,11.19
2023-10-30T04:37:09.697Z,11.22
2023-10-30T04:39:36.588Z,11.21
2023-10-30T04:42:03.226Z,11.21
2023-10-30T04:44:29.841Z,11.21
2023-10-30T04:46:56.786Z,11.21
2023-10-30T04:49:23.403Z,11.18
2023-10-30T04:51:50.277Z,11.16
2023-10-30T04:54:17.153Z,11.10
2023-10-30T04:56:48.433Z,11.11
2023-10-30T04:59:15.038Z,11.12
2023-10-30T05:01:41.707Z,11.12
2023-10-30T05:04:08.599Z,11.12
2023-10-30T05:06:36.483Z,11.11
2023-10-30T05:09:04.694Z,11.17
2023-10-30T05:11:31.316Z,11.14
2023-10-30T05:13:58.156Z,11.13
2023-10-30T05:16:25.297Z,11.10
2023-10-30T05:18:52.205Z,11.12
2023-10-30T05:21:18.863Z,11.13
2023-10-30T05:23:45.694Z,11.12
2023-10-30T05:26:12.821Z,11.13
2023-10-30T05:28:39.468Z,11.13
2023-10-30T05:31:08.511Z,11.12
2023-10-30T05:33:35.533Z,11.12
2023-10-30T05:36:04.388Z,11.11
2023-10-30T05:38:31.315Z,11.10
2023-10-30T05:40:58.106Z,11.12
2023-10-30T05:43:24.973Z,11.10
2023-10-30T05:45:53.713Z,11.06
2023-10-30T05:48:20.751Z,11.06
2023-10-30T05:50:47.429Z,11.05
2023-10-30T05:53:15.042Z,11.07
2023-10-30T05:55:42.718Z,11.07
2023-10-30T05:58:10.690Z,11.05
2023-10-30T06:00:37.326Z,11.02
2023-10-30T06:03:04.378Z,10.97
2023-10-30T06:05:31.686Z,10.96
2023-10-30T06:07:59.086Z,10.95
2023-10-30T06:13:29.672Z,10.90
2023-10-30T06:15:56.381Z,10.88
2023-10-30T06:21:40.344Z,10.90
2023-10-30T06:24:08.509Z,10.89
2023-10-30T06:26:36.857Z,10.88
2023-10-30T06:29:03.472Z,10.85
2023-10-30T06:31:33.245Z,10.83
2023-10-30T06:34:00.011Z,10.82
2023-10-30T06:36:26.745Z,10.82
2023-10-30T06:38:57.130Z,10.85
2023-10-30T06:41:24.263Z,10.81
2023-10-30T06:43:53.891Z,10.86
2023-10-30T06:46:20.661Z,10.85
2023-10-30T06:51:57.028Z,10.87
2023-10-30T06:54:23.851Z,10.87
2023-10-30T06:56:51.553Z,10.87
2023-10-30T06:59:18.404Z,10.87
2023-10-30T07:01:46.740Z,10.87
2023-10-30T07:04:15.677Z,10.88
2023-10-30T07:06:44.672Z,10.87
2023-10-30T07:09:13.327Z,10.86
2023-10-30T07:11:43.598Z,10.87
2023-10-30T07:14:10.977Z,10.87
2023-10-30T07:16:45.763Z,10.88
2023-10-30T07:19:17.153Z,10.87
2023-10-30T07:21:46.706Z,10.86
2023-10-30T07:24:13.884Z,10.86
2023-10-30T07:26:42.730Z,10.86
2023-10-30T07:29:09.498Z,10.87
2023-10-30T07:31:36.461Z,10.87
2023-10-30T07:34:04.224Z,10.87
2023-10-30T07:36:33.246Z,10.88
2023-10-30T07:38:59.914Z,10.89
2023-10-30T07:41:27.398Z,10.89
2023-10-30T07:43:56.585Z,10.88
2023-10-30T07:46:23.277Z,10.90
2023-10-30T07:51:59.701Z,10.91
2023-10-30T07:54:27.501Z,10.93
2023-10-30T08:03:15.723Z,10.99
2023-10-30T08:05:42.527Z,11.01
2023-10-30T08:08:12.147Z,11.03
2023-10-30T08:10:40.185Z,11.09
2023-10-30T08:13:08.449Z,11.09
2023-10-30T08:15:35.374Z,11.11
2023-10-30T08:24:25.061Z,11.14
2023-10-30T08:26:54.696Z,11.12
2023-10-30T08:29:21.944Z,11.15
2023-10-30T08:31:48.700Z,11.17
2023-10-30T08:37:28.538Z,11.20
2023-10-30T08:39:55.734Z,11.27
2023-10-30T08:42:24.538Z,11.34
2023-10-30T08:44:51.634Z,11.47
2023-10-30T08:47:20.190Z,11.66
2023-10-30T08:49:47.098Z,11.71
2023-10-30T08:58:34.553Z,12.03
2023-10-30T09:01:01.176Z,12.13
2023-10-30T09:06:43.529Z,12.34
2023-10-30T09:09:12.383Z,12.43
2023-10-30T09:11:40.128Z,12.46
2023-10-30T09:14:10.004Z,12.55
2023-10-30T09:16:37.511Z,12.56
2023-10-30T09:19:05.127Z,12.60
2023-10-30T09:21:32.555Z,12.66
2023-10-30T09:24:00.256Z,12.68
2023-10-30T09:26:27.240Z,12.68
2023-10-30T09:32:05.537Z,12.78
2023-10-30T09:34:32.545Z,12.81
2023-10-30T09:37:01.439Z,12.89
2023-10-30T09:39:29.435Z,12.93
2023-10-30T09:42:00.357Z,13.03
2023-10-30T09:44:28.626Z,13.15
2023-10-30T09:46:57.532Z,13.19
2023-10-30T09:49:26.534Z,13.31
2023-10-30T09:51:55.268Z,13.34
2023-10-30T09:54:22.709Z,13.39
2023-10-30T09:56:51.466Z,13.46
2023-10-30T09:59:19.834Z,13.50
2023-10-30T10:01:49.394Z,13.64
2023-10-30T10:04:17.405Z,13.76
2023-10-30T10:06:45.048Z,13.87
2023-10-30T10:09:12.040Z,13.94
2023-10-30T10:11:38.892Z,14.09
2023-10-30T10:14:07.384Z,14.10
2023-10-30T10:16:38.779Z,14.19
2023-10-30T10:19:23.724Z,14.21
2023-10-30T10:21:51.617Z,14.19
2023-10-30T10:24:30.479Z,14.28
2023-10-30T10:27:07.371Z,14.31
2023-10-30T10:29:35.055Z,14.32
2023-10-30T10:32:02.162Z,14.28
2023-10-30T10:34:33.986Z,14.23
2023-10-30T10:37:03.273Z,14.27
2023-10-30T10:39:52.017Z,14.30
2023-10-30T10:42:24.730Z,14.22
2023-10-30T10:44:53.236Z,14.21
2023-10-30T10:47:24.512Z,14.29
2023-10-30T10:49:53.676Z,14.35
2023-10-30T10:52:25.077Z,14.38
2023-10-30T10:55:05.362Z,14.40
2023-10-30T10:57:42.612Z,14.46
2023-10-30T11:00:13.669Z,14.48
2023-10-30T11:02:46.158Z,14.48
2023-10-30T11:05:14.216Z,14.52
2023-10-30T11:07:52.891Z,14.53
2023-10-30T11:10:31.162Z,14.53
2023-10-30T11:13:31.091Z,14.55
2023-10-30T11:16:08.162Z,14.50
2023-10-30T11:18:35.045Z,14.53
2023-10-30T11:21:12.440Z,14.42
2023-10-30T11:23:53.593Z,14.37
2023-10-30T11:26:45.550Z,14.37
2023-10-30T11:29:18.662Z,14.46
2023-10-30T11:32:04.990Z,14.39
2023-10-30T11:34:41.072Z,14.39
2023-10-30T11:37:22.476Z,14.38
2023-10-30T11:39:53.599Z,14.38
2023-10-30T11:42:29.170Z,14.38
2023-10-30T11:45:27.792Z,14.37
2023-10-30T11:48:07.057Z,14.42
2023-10-30T11:50:46.160Z,14.48
2023-10-30T11:53:19.201Z,14.53
2023-10-30T11:55:48.902Z,14.53
2023-10-30T11:58:16.761Z,14.58
2023-10-30T12:00:48.218Z,14.70
2023-10-30T12:03:16.279Z,14.84
2023-10-30T12:05:46.903Z,14.94
2023-10-30T12:08:14.756Z,15.09
2023-10-30T12:10:41.528Z,15.13
2023-10-30T12:13:13.549Z,15.16
2023-10-30T12:15:41.936Z,15.26
2023-10-30T12:18:10.674Z,15.26
2023-10-30T12:20:37.516Z,15.39
2023-10-30T12:23:04.400Z,15.40
2023-10-30T12:25:31.085Z,15.46
2023-10-30T12:28:02.398Z,15.52
2023-10-30T12:30:39.476Z,15.53
2023-10-30T12:33:06.809Z,15.67
2023-10-30T12:35:35.760Z,15.64
2023-10-30T12:38:14.821Z,15.65
2023-10-30T12:40:45.003Z,15.68
2023-10-30T12:43:14.712Z,15.63
2023-10-30T12:45:41.414Z,15.63
2023-10-30T12:48:10.046Z,15.49
2023-10-30T12:50:38.283Z,15.46
2023-10-30T12:53:06.169Z,15.51
2023-10-30T12:55:32.936Z,15.46
2023-10-30T12:58:00.875Z,15.40
2023-10-30T13:00:27.445Z,15.36
2023-10-30T13:02:56.786Z,15.31
2023-10-30T13:05:24.590Z,15.29
2023-10-30T13:07:52.597Z,15.26
2023-10-30T13:10:19.278Z,15.28
2023-10-30T13:12:48.532Z,15.25
2023-10-30T13:15:15.299Z,15.24
2023-10-30T13:17:43.961Z,15.24
2023-10-30T13:20:11.927Z,15.17
2023-10-30T13:22:38.658Z,15.10
2023-10-30T13:25:07.214Z,15.02
2023-10-30T13:27:36.361Z,15.02
2023-10-30T13:30:05.383Z,15.05
2023-10-30T13:32:33.969Z,15.04
2023-10-30T13:35:01.174Z,15.05
2023-10-30T13:37:28.612Z,15.06
2023-10-30T13:39:56.349Z,14.99
2023-10-30T13:42:25.062Z,14.97
2023-10-30T13:44:51.784Z,14.97
2023-10-30T13:47:21.777Z,14.93
2023-10-30T13:49:51.507Z,14.91
2023-10-30T13:52:19.344Z,14.94
2023-10-30T13:54:48.046Z,14.94
2023-10-30T13:57:17.077Z,14.90
2023-10-30T13:59:43.806Z,14.87
2023-10-30T14:02:12.598Z,14.89
2023-10-30T14:04:39.928Z,14.92
2023-10-30T14:07:08.005Z,14.95
2023-10-30T14:09:34.840Z,14.98
2023-10-30T14:12:02.485Z,14.91
2023-10-30T14:14:29.144Z,14.85
2023-10-30T14:16:56.613Z,14.79
2023-10-30T14:19:23.376Z,14.77
2023-10-30T14:21:50.472Z,14.70
2023-10-30T14:24:17.781Z,14.69
2023-10-30T14:26:45.818Z,14.67
2023-10-30T14:29:12.510Z,14.64
2023-10-30T14:31:40.345Z,14.65
2023-10-30T14:34:08.409Z,14.63
2023-10-30T14:36:37.228Z,14.55
2023-10-30T14:39:04.992Z,14.55
2023-10-30T14:41:34.183Z,14.57
2023-10-30T14:44:01.050Z,14.56
2023-10-30T14:46:31.149Z,14.56
2023-10-30T14:49:00.361Z,14.53
2023-10-30T14:51:29.311Z,14.52
2023-10-30T14:53:57.284Z,14.43
2023-10-30T14:56:23.894Z,14.31
2023-10-30T14:58:52.761Z,14.26
2023-10-30T15:01:20.009Z,14.21
2023-10-30T15:03:47.242Z,14.16
2023-10-30T15:06:14.809Z,14.10
2023-10-30T15:08:42.567Z,14.05
2023-10-30T15:11:10.264Z,14.03
2023-10-30T15:13:37.900Z,14.01
2023-10-30T15:16:05.357Z,13.97
2023-10-30T15:18:34.017Z,13.92
2023-10-30T15:21:02.847Z,13.87
2023-10-30T15:23:32.211Z,13.84
2023-10-30T15:26:00.327Z,13.81
2023-10-30T15:28:28.197Z,13.79
2023-10-30T15:30:57.181Z,13.73
2023-10-30T15:33:28.857Z,13.71
2023-10-30T15:35:56.054Z,13.68
2023-10-30T15:38:22.925Z,13.66
2023-10-30T15:40:50.913Z,13.67
2023-10-30T15:43:19.658Z,13.63
2023-10-30T15:45:46.510Z,13.57
2023-10-30T15:48:15.629Z,13.49
2023-10-30T15:58:54.103Z,13.33
2023-10-30T16:01:21.279Z,13.28
2023-10-30T16:03:48.913Z,13.25
2023-10-30T16:06:16.451Z,13.20
2023-10-30T16:08:47.801Z,13.16
2023-10-30T16:13:48.305Z,13.12
2023-10-30T16:16:15.186Z,13.10
2023-10-30T16:19:15.406Z,13.09
2023-10-30T16:21:29.192Z,13.04
2023-10-30T16:23:56.672Z,13.02
2023-10-30T16:26:23.327Z,13.03
2023-10-30T16:28:50.092Z,13.01
2023-10-30T16:31:19.187Z,12.96
2023-10-30T16:33:47.575Z,12.94
2023-10-30T16:36:14.881Z,12.92
2023-10-30T16:38:41.652Z,12.88
2023-10-30T16:41:09.285Z,12.84
2023-10-30T16:43:37.421Z,12.83
2023-10-30T16:46:05.533Z,12.78
2023-10-30T16:48:34.509Z,12.75
2023-10-30T16:51:02.160Z,12.69
2023-10-30T16:53:29.392Z,12.66
2023-10-30T16:55:56.711Z,12.65
2023-10-30T16:58:26.285Z,12.61
2023-10-30T17:00:54.159Z,12.61
2023-10-30T17:03:22.265Z,12.58
2023-10-30T17:05:49.662Z,12.55
2023-10-30T17:08:20.346Z,12.54
2023-10-30T17:10:49.606Z,12.49
2023-10-30T17:13:18.430Z,12.48
2023-10-30T17:15:46.617Z,12.47
2023-10-30T17:18:16.310Z,12.45
2023-10-30T17:20:43.116Z,12.43
2023-10-30T17:23:11.163Z,12.41
2023-10-30T17:25:39.012Z,12.42
2023-10-30T17:28:07.200Z,12.39
2023-10-30T17:30:36.055Z,12.41
2023-10-30T17:33:04.972Z,12.42
2023-10-30T17:35:34.290Z,12.42
2023-10-30T17:44:05.625Z,12.48
2023-10-30T17:46:37.974Z,12.47
2023-10-30T17:49:06.606Z,12.48
2023-10-30T17:51:36.952Z,12.48
2023-10-30T17:54:03.940Z,12.50
2023-10-30T17:56:40.455Z,12.48
2023-10-30T17:59:08.969Z,12.47
2023-10-30T18:01:38.517Z,12.43
2023-10-30T18:04:05.626Z,12.40
2023-10-30T18:06:35.877Z,12.39
2023-10-30T18:09:02.611Z,12.42
2023-10-30T18:17:54.804Z,12.44
2023-10-30T18:20:25.029Z,12.44
2023-10-30T18:22:52.280Z,12.41
2023-10-30T18:25:21.607Z,12.41
2023-10-30T18:34:07.896Z,12.41
2023-10-30T18:36:36.206Z,12.41
2023-10-30T18:42:11.968Z,12.43
2023-10-30T18:44:40.851Z,12.41
2023-10-30T18:47:09.271Z,12.39
2023-10-30T18:49:38.159Z,12.39
2023-10-30T18:52:07.053Z,12.35
2023-10-30T18:54:34.750Z,12.37
2023-10-30T18:57:03.242Z,12.38
2023-10-30T18:59:31.066Z,12.34
2023-10-30T19:02:00.061Z,12.28
2023-10-30T19:04:48.003Z,12.27
2023-10-30T19:07:15.442Z,12.24
2023-10-30T19:09:43.392Z,12.23
2023-10-30T19:12:11.277Z,12.25
2023-10-30T19:14:37.866Z,12.22
2023-10-30T19:17:09.218Z,12.20
2023-10-30T19:19:36.043Z,12.17
2023-10-30T19:22:04.832Z,12.16
2023-10-30T19:24:32.826Z,12.16
2023-10-30T19:27:03.617Z,12.15
2023-10-30T19:29:30.407Z,12.14
2023-10-30T19:31:58.918Z,12.14
2023-10-30T19:34:51.598Z,12.13
2023-10-30T19:37:20.647Z,12.14
2023-10-30T19:39:49.200Z,12.12
2023-10-30T19:42:18.416Z,12.12
2023-10-30T19:44:47.961Z,12.11
2023-10-30T19:47:15.839Z,12.11
2023-10-30T19:49:42.836Z,12.09
2023-10-30T19:52:09.579Z,12.11
2023-10-30T19:54:37.628Z,12.12
2023-10-30T19:57:06.513Z,12.11
2023-10-30T19:59:33.253Z,12.07
2023-10-30T20:02:01.761Z,12.05
2023-10-30T20:04:31.149Z,12.05
2023-10-30T20:06:58.386Z,12.05
2023-10-30T20:09:37.823Z,12.03
2023-10-30T20:12:13.043Z,12.02
2023-10-30T20:14:40.693Z,12.04
2023-10-30T20:17:09.886Z,12.00
2023-10-30T20:19:37.686Z,11.99
2023-10-30T20:22:06.057Z,11.97
2023-10-30T20:24:35.112Z,11.97
2023-10-30T20:27:08.418Z,11.96
2023-10-30T20:29:35.547Z,11.96
2023-10-30T20:32:04.762Z,11.95
2023-10-30T20:34:34.419Z,11.96
2023-10-30T20:37:03.947Z,11.96
2023-10-30T20:39:31.158Z,11.92
2023-10-30T20:41:59.933Z,11.91
2023-10-30T20:44:27.031Z,11.91
2023-10-30T20:46:55.786Z,11.94
2023-10-30T20:49:24.277Z,11.94
2023-10-30T20:51:54.214Z,11.93
2023-10-30T20:54:22.910Z,11.88
2023-10-30T20:56:50.933Z,11.89
2023-10-30T20:59:25.559Z,11.85
2023-10-30T21:01:54.842Z,11.84
2023-10-30T21:04:21.710Z,11.81
2023-10-30T21:06:49.810Z,11.76
2023-10-30T21:09:17.023Z,11.76
2023-10-30T21:11:47.313Z,11.76
2023-10-30T21:14:15.140Z,11.73
2023-10-30T21:16:43.628Z,11.80
2023-10-30T21:19:11.957Z,11.79
2023-10-30T21:21:42.332Z,11.76
2023-10-30T21:24:09.832Z,11.75
2023-10-30T21:26:38.038Z,11.76
2023-10-30T21:29:06.722Z,11.69
2023-10-30T21:31:34.898Z,11.68
2023-10-30T21:34:02.953Z,11.65
2023-10-30T21:36:31.188Z,11.65
2023-10-30T21:39:01.202Z,11.65
2023-10-30T21:44:10.572Z,11.64
2023-10-30T21:46:38.690Z,11.64
2023-10-30T21:49:06.861Z,11.61
2023-10-30T21:51:36.174Z,11.58
2023-10-30T21:54:04.785Z,11.61
2023-10-30T21:56:32.575Z,11.61
2023-10-30T21:59:01.009Z,11.62
2023-10-30T22:01:32.451Z,11.63
2023-10-30T22:04:00.764Z,11.63
2023-10-30T22:06:38.098Z,11.62
2023-10-30T22:09:05.935Z,11.64
2023-10-30T22:11:34.876Z,11.64
2023-10-30T22:14:02.856Z,11.62
2023-10-30T22:16:30.229Z,11.63
2023-10-30T22:19:00.131Z,11.63
2023-10-30T22:21:26.762Z,11.63
2023-10-30T22:23:55.003Z,11.63
2023-10-30T22:26:22.009Z,11.62
2023-10-30T22:28:49.689Z,11.62
2023-10-30T22:31:19.288Z,11.62
2023-10-30T22:33:46.233Z,11.62
2023-10-30T22:36:21.469Z,11.59
2023-10-30T22:38:49.230Z,11.60
2023-10-30T22:41:17.513Z,11.61
2023-10-30T22:43:44.306Z,11.60
2023-10-30T22:46:11.115Z,11.59
2023-10-30T22:48:39.274Z,11.57
2023-10-30T22:51:07.313Z,11.56
2023-10-30T22:53:34.400Z,11.56
2023-10-30T22:56:04.028Z,11.55
2023-10-30T22:58:31.076Z,11.52
2023-10-30T23:00:58.647Z,11.53
2023-10-30T23:03:25.268Z,11.55
2023-10-30T23:05:51.876Z,11.51
2023-10-30T23:08:18.569Z,11.52
2023-10-30T23:11:11.548Z,11.51
2023-10-30T23:13:39.426Z,11.52
2023-10-30T23:16:07.759Z,11.46
2023-10-30T23:18:34.753Z,11.50
2023-10-30T23:21:03.087Z,11.48
2023-10-30T23:23:29.749Z,11.47
2023-10-30T23:25:56.373Z,11.47
2023-10-30T23:28:29.232Z,11.46
2023-10-30T23:30:56.098Z,11.44
2023-10-30T23:33:25.019Z,11.43
2023-10-30T23:35:52.745Z,11.45
2023-10-30T23:38:19.407Z,11.45
2023-10-30T23:40:52.475Z,11.46
2023-10-30T23:46:41.421Z,11.49
2023-10-30T23:49:08.650Z,11.51
2023-10-30T23:51:38.653Z,11.50
2023-10-30T23:54:06.457Z,11.50
2023-10-30T23:56:34.102Z,11.51
2023-10-30T23:59:01.711Z,11.49
